sensor_id;sensor_type;location;lat;lon;timestamp;pressure;altitude;pressure_sealevel;temperature;humidity
62548;BME280;48602;45.192;5.722;2023-01-27T00:00:42;99196.47;;;1.74;72.53
62548;BME280;48602;45.192;5.722;2023-01-27T00:03:11;99195.63;;;1.70;73.23
62548;BME280;48602;45.192;5.722;2023-01-27T00:05:37;99196.47;;;1.69;72.60
62548;BME280;48602;45.192;5.722;2023-01-27T00:08:03;99190.47;;;1.66;73.45
62548;BME280;48602;45.192;5.722;2023-01-27T00:10:28;99193.91;;;1.65;73.09
62548;BME280;48602;45.192;5.722;2023-01-27T00:12:53;99199.13;;;1.65;73.67
62548;BME280;48602;45.192;5.722;2023-01-27T00:15:37;99193.91;;;1.65;73.03
62548;BME280;48602;45.192;5.722;2023-01-27T00:18:03;99193.06;;;1.61;73.53
62548;BME280;48602;45.192;5.722;2023-01-27T00:20:28;99192.19;;;1.61;73.04
62548;BME280;48602;45.192;5.722;2023-01-27T00:23:18;99209.53;;;1.59;73.46
62548;BME280;48602;45.192;5.722;2023-01-27T00:26:04;99207.78;;;1.56;73.87
62548;BME280;48602;45.192;5.722;2023-01-27T00:28:36;99208.66;;;1.54;74.01
62548;BME280;48602;45.192;5.722;2023-01-27T00:31:03;99206.06;;;1.52;74.05
62548;BME280;48602;45.192;5.722;2023-01-27T00:33:29;99192.25;;;1.47;73.38
62548;BME280;48602;45.192;5.722;2023-01-27T00:36:01;99192.25;;;1.50;74.03
62548;BME280;48602;45.192;5.722;2023-01-27T00:38:28;99211.28;;;1.45;73.67
62548;BME280;48602;45.192;5.722;2023-01-27T00:40:54;99190.50;;;1.42;74.07
62548;BME280;48602;45.192;5.722;2023-01-27T00:43:38;99196.56;;;1.42;74.47
62548;BME280;48602;45.192;5.722;2023-01-27T00:46:04;99199.16;;;1.40;73.89
62548;BME280;48602;45.192;5.722;2023-01-27T00:48:30;99198.31;;;1.38;74.15
62548;BME280;48602;45.192;5.722;2023-01-27T00:50:55;99200.03;;;1.36;73.83
62548;BME280;48602;45.192;5.722;2023-01-27T00:53:21;99207.88;;;1.33;74.01
62548;BME280;48602;45.192;5.722;2023-01-27T00:55:46;99206.13;;;1.34;74.46
62548;BME280;48602;45.192;5.722;2023-01-27T00:58:12;99201.81;;;1.33;74.19
62548;BME280;48602;45.192;5.722;2023-01-27T01:00:38;99190.56;;;1.34;73.91
62548;BME280;48602;45.192;5.722;2023-01-27T01:03:03;99203.53;;;1.34;74.04
62548;BME280;48602;45.192;5.722;2023-01-27T01:05:29;99193.16;;;1.34;74.23
62548;BME280;48602;45.192;5.722;2023-01-27T01:07:57;99179.28;;;1.32;74.03
62548;BME280;48602;45.192;5.722;2023-01-27T01:10:23;99198.34;;;1.31;73.29
62548;BME280;48602;45.192;5.722;2023-01-27T01:12:48;99188.81;;;1.31;73.48
62548;BME280;48602;45.192;5.722;2023-01-27T01:15:13;99185.34;;;1.29;73.76
62548;BME280;48602;45.192;5.722;2023-01-27T01:17:39;99197.47;;;1.30;74.28
62548;BME280;48602;45.192;5.722;2023-01-27T01:20:05;99190.56;;;1.29;73.67
62548;BME280;48602;45.192;5.722;2023-01-27T01:22:30;99192.28;;;1.30;74.09
62548;BME280;48602;45.192;5.722;2023-01-27T01:24:55;99172.38;;;1.29;73.80
62548;BME280;48602;45.192;5.722;2023-01-27T01:27:21;99174.97;;;1.26;74.29
62548;BME280;48602;45.192;5.722;2023-01-27T01:29:47;99183.63;;;1.25;74.17
62548;BME280;48602;45.192;5.722;2023-01-27T01:32:12;99183.63;;;1.25;73.96
62548;BME280;48602;45.192;5.722;2023-01-27T01:34:37;99172.38;;;1.25;74.32
62548;BME280;48602;45.192;5.722;2023-01-27T01:37:03;99182.75;;;1.23;74.09
62548;BME280;48602;45.192;5.722;2023-01-27T01:39:30;99169.78;;;1.22;74.45
62548;BME280;48602;45.192;5.722;2023-01-27T01:41:55;99181.03;;;1.21;74.21
62548;BME280;48602;45.192;5.722;2023-01-27T01:44:28;99177.56;;;1.22;74.42
62548;BME280;48602;45.192;5.722;2023-01-27T01:46:54;99168.91;;;1.23;74.14
62548;BME280;48602;45.192;5.722;2023-01-27T01:49:24;99173.25;;;1.24;74.23
62548;BME280;48602;45.192;5.722;2023-01-27T01:51:54;99176.69;;;1.24;74.06
62548;BME280;48602;45.192;5.722;2023-01-27T01:54:28;99164.59;;;1.23;74.15
62548;BME280;48602;45.192;5.722;2023-01-27T01:57:18;99180.16;;;1.23;74.32
62548;BME280;48602;45.192;5.722;2023-01-27T02:00:02;99168.91;;;1.24;74.24
62548;BME280;48602;45.192;5.722;2023-01-27T02:02:29;99172.38;;;1.25;73.59
62548;BME280;48602;45.192;5.722;2023-01-27T02:05:00;99165.44;;;1.27;74.11
62548;BME280;48602;45.192;5.722;2023-01-27T02:09:56;99165.44;;;1.30;74.09
62548;BME280;48602;45.192;5.722;2023-01-27T02:12:22;99162.84;;;1.28;73.84
62548;BME280;48602;45.192;5.722;2023-01-27T02:14:48;99164.59;;;1.28;74.18
62548;BME280;48602;45.192;5.722;2023-01-27T02:17:13;99155.94;;;1.26;73.98
62548;BME280;48602;45.192;5.722;2023-01-27T02:20:04;99158.53;;;1.26;73.94
62548;BME280;48602;45.192;5.722;2023-01-27T02:22:50;99150.72;;;1.26;74.21
62548;BME280;48602;45.192;5.722;2023-01-27T02:28:04;99151.59;;;1.22;74.29
62548;BME280;48602;45.192;5.722;2023-01-27T02:30:30;99155.94;;;1.21;74.14
62548;BME280;48602;45.192;5.722;2023-01-27T02:32:55;99152.47;;;1.22;74.18
62548;BME280;48602;45.192;5.722;2023-01-27T02:35:33;99162.84;;;1.22;74.24
62548;BME280;48602;45.192;5.722;2023-01-27T02:38:00;99149.88;;;1.21;74.12
62548;BME280;48602;45.192;5.722;2023-01-27T02:40:26;99169.78;;;1.22;74.18
62548;BME280;48602;45.192;5.722;2023-01-27T02:42:55;99151.59;;;1.22;73.48
62548;BME280;48602;45.192;5.722;2023-01-27T02:45:22;99146.41;;;1.20;73.69
62548;BME280;48602;45.192;5.722;2023-01-27T02:47:48;99154.19;;;1.19;73.42
62548;BME280;48602;45.192;5.722;2023-01-27T02:50:17;99141.22;;;1.19;73.67
62548;BME280;48602;45.192;5.722;2023-01-27T02:52:43;99137.75;;;1.18;73.52
62548;BME280;48602;45.192;5.722;2023-01-27T02:55:09;99137.75;;;1.20;73.36
62548;BME280;48602;45.192;5.722;2023-01-27T02:57:34;99135.16;;;1.18;73.88
62548;BME280;48602;45.192;5.722;2023-01-27T03:00:00;99123.91;;;1.18;73.68
62548;BME280;48602;45.192;5.722;2023-01-27T03:02:25;99128.28;;;1.17;73.97
62548;BME280;48602;45.192;5.722;2023-01-27T03:04:58;99116.13;;;1.18;73.97
62548;BME280;48602;45.192;5.722;2023-01-27T03:07:24;99121.31;;;1.18;74.25
62548;BME280;48602;45.192;5.722;2023-01-27T03:09:50;99117.84;;;1.19;73.95
62548;BME280;48602;45.192;5.722;2023-01-27T03:12:15;99120.47;;;1.17;73.82
62548;BME280;48602;45.192;5.722;2023-01-27T03:14:51;99112.69;;;1.16;73.87
62548;BME280;48602;45.192;5.722;2023-01-27T03:17:36;99110.97;;;1.15;73.74
62548;BME280;48602;45.192;5.722;2023-01-27T03:20:20;99114.41;;;1.15;74.00
62548;BME280;48602;45.192;5.722;2023-01-27T03:22:46;99104.91;;;1.16;73.84
62548;BME280;48602;45.192;5.722;2023-01-27T03:25:12;99101.44;;;1.12;73.90
62548;BME280;48602;45.192;5.722;2023-01-27T03:27:37;99104.91;;;1.10;73.91
62548;BME280;48602;45.192;5.722;2023-01-27T03:30:03;99115.28;;;1.08;74.42
62548;BME280;48602;45.192;5.722;2023-01-27T03:32:30;99109.22;;;1.08;74.16
62548;BME280;48602;45.192;5.722;2023-01-27T03:34:56;99121.34;;;1.09;74.26
62548;BME280;48602;45.192;5.722;2023-01-27T03:37:26;99114.44;;;1.06;74.17
62548;BME280;48602;45.192;5.722;2023-01-27T03:40:12;99120.47;;;1.05;74.35
62548;BME280;48602;45.192;5.722;2023-01-27T03:42:56;99114.44;;;1.04;73.99
62548;BME280;48602;45.192;5.722;2023-01-27T03:45:43;99124.81;;;1.01;73.75
62548;BME280;48602;45.192;5.722;2023-01-27T03:48:30;99114.47;;;1.00;74.47
62548;BME280;48602;45.192;5.722;2023-01-27T03:51:00;99112.72;;;0.97;73.85
62548;BME280;48602;45.192;5.722;2023-01-27T03:53:26;99102.34;;;0.97;73.92
62548;BME280;48602;45.192;5.722;2023-01-27T03:55:52;99112.72;;;0.99;74.04
62548;BME280;48602;45.192;5.722;2023-01-27T03:58:22;99105.81;;;0.99;73.98
62548;BME280;48602;45.192;5.722;2023-01-27T04:00:50;99106.69;;;1.00;73.86
62548;BME280;48602;45.192;5.722;2023-01-27T04:03:16;99104.94;;;1.00;74.22
62548;BME280;48602;45.192;5.722;2023-01-27T04:06:09;99091.97;;;1.00;74.10
62548;BME280;48602;45.192;5.722;2023-01-27T04:08:54;99097.13;;;1.02;74.03
62548;BME280;48602;45.192;5.722;2023-01-27T04:11:20;99100.59;;;1.01;73.71
62548;BME280;48602;45.192;5.722;2023-01-27T04:14:05;99104.94;;;0.99;73.80
62548;BME280;48602;45.192;5.722;2023-01-27T04:16:31;99094.56;;;0.97;74.41
62548;BME280;48602;45.192;5.722;2023-01-27T04:18:56;99106.69;;;0.95;74.20
62548;BME280;48602;45.192;5.722;2023-01-27T04:21:23;99100.63;;;0.98;74.21
62548;BME280;48602;45.192;5.722;2023-01-27T04:23:50;99120.50;;;0.97;74.33
62548;BME280;48602;45.192;5.722;2023-01-27T04:26:15;99100.63;;;0.96;74.36
62548;BME280;48602;45.192;5.722;2023-01-27T04:28:40;99110.13;;;0.94;74.32
62548;BME280;48602;45.192;5.722;2023-01-27T04:31:06;99102.34;;;0.93;74.26
62548;BME280;48602;45.192;5.722;2023-01-27T04:33:31;99107.53;;;0.91;74.13
62548;BME280;48602;45.192;5.722;2023-01-27T04:35:57;99103.22;;;0.90;74.08
62548;BME280;48602;45.192;5.722;2023-01-27T04:38:22;99119.66;;;0.89;74.59
62548;BME280;48602;45.192;5.722;2023-01-27T04:40:47;99103.22;;;0.89;73.92
62548;BME280;48602;45.192;5.722;2023-01-27T04:43:13;99106.69;;;0.88;74.36
62548;BME280;48602;45.192;5.722;2023-01-27T04:45:38;99103.22;;;0.86;74.92
62548;BME280;48602;45.192;5.722;2023-01-27T04:48:04;99090.25;;;0.84;74.53
62548;BME280;48602;45.192;5.722;2023-01-27T04:50:31;99106.69;;;0.83;74.53
62548;BME280;48602;45.192;5.722;2023-01-27T04:52:56;99111.91;;;0.82;74.42
62548;BME280;48602;45.192;5.722;2023-01-27T04:55:22;99105.84;;;0.83;74.38
62548;BME280;48602;45.192;5.722;2023-01-27T04:57:50;99114.50;;;0.82;74.71
62548;BME280;48602;45.192;5.722;2023-01-27T05:00:16;99104.97;;;0.79;74.69
62548;BME280;48602;45.192;5.722;2023-01-27T05:02:41;99112.75;;;0.81;75.31
62548;BME280;48602;45.192;5.722;2023-01-27T05:05:07;99098.06;;;0.80;74.98
62548;BME280;48602;45.192;5.722;2023-01-27T05:07:33;99099.78;;;0.81;74.97
62548;BME280;48602;45.192;5.722;2023-01-27T05:09:58;99097.19;;;0.81;75.30
62548;BME280;48602;45.192;5.722;2023-01-27T05:12:24;99096.31;;;0.82;74.86
62548;BME280;48602;45.192;5.722;2023-01-27T05:14:49;99117.09;;;0.83;74.95
62548;BME280;48602;45.192;5.722;2023-01-27T05:17:14;99086.81;;;0.84;74.63
62548;BME280;48602;45.192;5.722;2023-01-27T05:19:40;99093.72;;;0.83;74.45
62548;BME280;48602;45.192;5.722;2023-01-27T05:22:05;99097.19;;;0.84;75.02
62548;BME280;48602;45.192;5.722;2023-01-27T05:24:31;99104.97;;;0.84;74.57
62548;BME280;48602;45.192;5.722;2023-01-27T05:26:56;99106.69;;;0.82;75.10
62548;BME280;48602;45.192;5.722;2023-01-27T05:29:22;99100.66;;;0.83;74.56
62548;BME280;48602;45.192;5.722;2023-01-27T05:31:48;99098.06;;;0.83;74.79
62548;BME280;48602;45.192;5.722;2023-01-27T05:34:13;99105.81;;;0.84;74.98
62548;BME280;48602;45.192;5.722;2023-01-27T05:36:39;99105.81;;;0.86;74.80
62548;BME280;48602;45.192;5.722;2023-01-27T05:39:05;99123.09;;;0.85;74.95
62548;BME280;48602;45.192;5.722;2023-01-27T05:41:30;99106.69;;;0.82;74.66
62548;BME280;48602;45.192;5.722;2023-01-27T05:43:56;99115.34;;;0.82;75.03
62548;BME280;48602;45.192;5.722;2023-01-27T05:46:24;99117.94;;;0.81;74.81
62548;BME280;48602;45.192;5.722;2023-01-27T05:48:51;99126.59;;;0.78;74.95
62548;BME280;48602;45.192;5.722;2023-01-27T05:51:20;99111.03;;;0.78;74.80
62548;BME280;48602;45.192;5.722;2023-01-27T05:53:46;99121.41;;;0.78;75.53
62548;BME280;48602;45.192;5.722;2023-01-27T05:56:14;99112.75;;;0.79;74.43
62548;BME280;48602;45.192;5.722;2023-01-27T05:58:40;99115.34;;;0.76;74.44
62548;BME280;48602;45.192;5.722;2023-01-27T06:03:32;99117.94;;;0.76;75.01
62548;BME280;48602;45.192;5.722;2023-01-27T06:05:58;99116.22;;;0.75;74.75
62548;BME280;48602;45.192;5.722;2023-01-27T06:08:24;99115.34;;;0.75;74.89
62548;BME280;48602;45.192;5.722;2023-01-27T06:10:51;99111.88;;;0.76;75.05
62548;BME280;48602;45.192;5.722;2023-01-27T06:13:17;99111.88;;;0.76;74.85
62548;BME280;48602;45.192;5.722;2023-01-27T06:15:44;99117.09;;;0.77;74.64
62548;BME280;48602;45.192;5.722;2023-01-27T06:18:11;99118.81;;;0.77;74.79
62548;BME280;48602;45.192;5.722;2023-01-27T06:20:37;99121.41;;;0.77;74.74
62548;BME280;48602;45.192;5.722;2023-01-27T06:23:03;99135.25;;;0.76;74.47
62548;BME280;48602;45.192;5.722;2023-01-27T06:25:28;99119.66;;;0.74;74.40
62548;BME280;48602;45.192;5.722;2023-01-27T06:27:55;99127.47;;;0.73;75.28
62548;BME280;48602;45.192;5.722;2023-01-27T06:30:21;99122.25;;;0.71;74.57
62548;BME280;48602;45.192;5.722;2023-01-27T06:32:46;99127.44;;;0.69;74.53
62548;BME280;48602;45.192;5.722;2023-01-27T06:35:12;99111.03;;;0.69;74.55
62548;BME280;48602;45.192;5.722;2023-01-27T06:37:37;99117.06;;;0.71;74.45
62548;BME280;48602;45.192;5.722;2023-01-27T06:40:03;99110.16;;;0.73;74.48
62548;BME280;48602;45.192;5.722;2023-01-27T06:42:29;99123.13;;;0.75;74.68
62548;BME280;48602;45.192;5.722;2023-01-27T06:44:55;99134.38;;;0.74;74.49
62548;BME280;48602;45.192;5.722;2023-01-27T06:47:20;99119.66;;;0.73;74.52
62548;BME280;48602;45.192;5.722;2023-01-27T06:49:45;99124.84;;;0.73;74.86
62548;BME280;48602;45.192;5.722;2023-01-27T06:52:11;99127.44;;;0.71;74.45
62548;BME280;48602;45.192;5.722;2023-01-27T06:54:36;99132.63;;;0.71;74.70
62548;BME280;48602;45.192;5.722;2023-01-27T06:57:02;99126.59;;;0.69;74.93
62548;BME280;48602;45.192;5.722;2023-01-27T06:59:27;99117.06;;;0.69;74.68
62548;BME280;48602;45.192;5.722;2023-01-27T07:01:52;99136.09;;;0.72;74.41
62548;BME280;48602;45.192;5.722;2023-01-27T07:04:18;99135.22;;;0.69;74.24
62548;BME280;48602;45.192;5.722;2023-01-27T07:06:43;99138.69;;;0.72;74.33
62548;BME280;48602;45.192;5.722;2023-01-27T07:09:09;99139.56;;;0.72;74.42
62548;BME280;48602;45.192;5.722;2023-01-27T07:11:35;99141.28;;;0.73;74.22
62548;BME280;48602;45.192;5.722;2023-01-27T07:14:01;99138.69;;;0.73;74.23
62548;BME280;48602;45.192;5.722;2023-01-27T07:16:27;99142.16;;;0.74;74.07
62548;BME280;48602;45.192;5.722;2023-01-27T07:18:52;99136.97;;;0.72;73.85
62548;BME280;48602;45.192;5.722;2023-01-27T07:21:18;99139.56;;;0.74;73.88
62548;BME280;48602;45.192;5.722;2023-01-27T07:23:43;99143.03;;;0.74;74.06
62548;BME280;48602;45.192;5.722;2023-01-27T07:26:09;99147.34;;;0.72;74.04
62548;BME280;48602;45.192;5.722;2023-01-27T07:28:34;99148.22;;;0.73;74.09
62548;BME280;48602;45.192;5.722;2023-01-27T07:31:01;99156.00;;;0.71;74.34
62548;BME280;48602;45.192;5.722;2023-01-27T07:33:27;99145.59;;;0.69;74.10
62548;BME280;48602;45.192;5.722;2023-01-27T07:35:54;99154.25;;;0.70;74.34
62548;BME280;48602;45.192;5.722;2023-01-27T07:38:19;99149.94;;;0.67;74.46
62548;BME280;48602;45.192;5.722;2023-01-27T07:40:45;99149.06;;;0.70;74.40
62548;BME280;48602;45.192;5.722;2023-01-27T07:43:11;99144.75;;;0.69;74.21
62548;BME280;48602;45.192;5.722;2023-01-27T07:45:37;99149.94;;;0.72;74.28
62548;BME280;48602;45.192;5.722;2023-01-27T07:48:04;99140.44;;;0.73;74.40
62548;BME280;48602;45.192;5.722;2023-01-27T07:50:30;99159.44;;;0.72;74.44
62548;BME280;48602;45.192;5.722;2023-01-27T07:53:00;99153.41;;;0.69;74.54
62548;BME280;48602;45.192;5.722;2023-01-27T07:55:26;99150.78;;;0.69;74.25
62548;BME280;48602;45.192;5.722;2023-01-27T07:57:55;99163.78;;;0.73;74.13
62548;BME280;48602;45.192;5.722;2023-01-27T08:00:21;99164.66;;;0.73;74.27
62548;BME280;48602;45.192;5.722;2023-01-27T08:02:51;99160.31;;;0.72;73.83
62548;BME280;48602;45.192;5.722;2023-01-27T08:05:16;99149.06;;;0.73;74.03
62548;BME280;48602;45.192;5.722;2023-01-27T08:07:42;99163.78;;;0.74;74.29
62548;BME280;48602;45.192;5.722;2023-01-27T08:10:09;99157.72;;;0.75;74.19
62548;BME280;48602;45.192;5.722;2023-01-27T08:12:35;99166.38;;;0.82;73.81
62548;BME280;48602;45.192;5.722;2023-01-27T08:15:03;99162.91;;;0.84;73.63
62548;BME280;48602;45.192;5.722;2023-01-27T08:17:29;99161.16;;;0.86;73.80
62548;BME280;48602;45.192;5.722;2023-01-27T08:19:55;99167.22;;;0.88;73.64
62548;BME280;48602;45.192;5.722;2023-01-27T08:22:20;99166.38;;;0.91;73.44
62548;BME280;48602;45.192;5.722;2023-01-27T08:24:48;99163.78;;;0.94;73.79
62548;BME280;48602;45.192;5.722;2023-01-27T08:27:14;99166.38;;;0.97;73.59
62548;BME280;48602;45.192;5.722;2023-01-27T08:29:40;99168.97;;;1.00;73.63
62548;BME280;48602;45.192;5.722;2023-01-27T08:32:06;99170.66;;;1.01;73.35
62548;BME280;48602;45.192;5.722;2023-01-27T08:34:32;99166.38;;;1.00;73.41
62548;BME280;48602;45.192;5.722;2023-01-27T08:36:57;99174.13;;;1.01;73.22
62548;BME280;48602;45.192;5.722;2023-01-27T08:39:26;99165.47;;;1.02;73.43
62548;BME280;48602;45.192;5.722;2023-01-27T08:41:51;99170.66;;;1.04;73.24
62548;BME280;48602;45.192;5.722;2023-01-27T08:44:17;99177.59;;;1.07;73.19
62548;BME280;48602;45.192;5.722;2023-01-27T08:46:42;99187.13;;;1.09;73.29
62548;BME280;48602;45.192;5.722;2023-01-27T08:49:08;99174.13;;;1.09;72.92
62548;BME280;48602;45.192;5.722;2023-01-27T08:51:33;99178.47;;;1.10;73.12
62548;BME280;48602;45.192;5.722;2023-01-27T08:53:59;99174.13;;;1.11;73.18
62548;BME280;48602;45.192;5.722;2023-01-27T08:56:24;99177.59;;;1.13;73.21
62548;BME280;48602;45.192;5.722;2023-01-27T08:58:50;99169.81;;;1.11;73.22
62548;BME280;48602;45.192;5.722;2023-01-27T09:01:17;99176.72;;;1.11;72.87
62548;BME280;48602;45.192;5.722;2023-01-27T09:03:43;99179.31;;;1.09;72.98
62548;BME280;48602;45.192;5.722;2023-01-27T09:06:10;99176.72;;;1.09;72.92
62548;BME280;48602;45.192;5.722;2023-01-27T09:08:36;99181.06;;;1.09;72.43
62548;BME280;48602;45.192;5.722;2023-01-27T09:11:13;99175.00;;;1.08;72.43
62548;BME280;48602;45.192;5.722;2023-01-27T09:13:39;99183.66;;;1.10;72.57
62548;BME280;48602;45.192;5.722;2023-01-27T09:16:05;99186.25;;;1.13;72.65
62548;BME280;48602;45.192;5.722;2023-01-27T09:18:31;99186.25;;;1.15;72.47
62548;BME280;48602;45.192;5.722;2023-01-27T09:20:57;99181.06;;;1.15;72.61
62548;BME280;48602;45.192;5.722;2023-01-27T09:23:22;99187.97;;;1.16;72.78
62548;BME280;48602;45.192;5.722;2023-01-27T09:25:48;99184.50;;;1.18;72.82
62548;BME280;48602;45.192;5.722;2023-01-27T09:28:14;99194.00;;;1.18;72.84
62548;BME280;48602;45.192;5.722;2023-01-27T09:30:43;99183.63;;;1.18;72.83
62548;BME280;48602;45.192;5.722;2023-01-27T09:33:10;99190.53;;;1.19;72.70
62548;BME280;48602;45.192;5.722;2023-01-27T09:35:45;99179.28;;;1.20;72.57
62548;BME280;48602;45.192;5.722;2023-01-27T09:38:15;99187.94;;;1.25;72.80
62548;BME280;48602;45.192;5.722;2023-01-27T09:46:14;99187.94;;;1.28;72.82
62548;BME280;48602;45.192;5.722;2023-01-27T09:49:20;99200.06;;;1.30;72.84
62548;BME280;48602;45.192;5.722;2023-01-27T10:13:27;99201.75;;;1.45;72.25
62548;BME280;48602;45.192;5.722;2023-01-27T10:16:15;99199.16;;;1.50;72.46
62548;BME280;48602;45.192;5.722;2023-01-27T10:27:19;99205.22;;;1.47;71.79
62548;BME280;48602;45.192;5.722;2023-01-27T10:29:54;99209.56;;;1.50;72.50
62548;BME280;48602;45.192;5.722;2023-01-27T10:32:43;99207.81;;;1.50;71.77
62548;BME280;48602;45.192;5.722;2023-01-27T10:43:15;99217.34;;;1.40;71.83
62548;BME280;48602;45.192;5.722;2023-01-27T10:46:03;99202.63;;;1.38;71.88
62548;BME280;48602;45.192;5.722;2023-01-27T10:48:40;99212.16;;;1.39;72.09
62548;BME280;48602;45.192;5.722;2023-01-27T10:51:14;99218.22;;;1.36;71.92
62548;BME280;48602;45.192;5.722;2023-01-27T10:56:20;99208.72;;;1.34;72.12
62548;BME280;48602;45.192;5.722;2023-01-27T11:01:18;99213.03;;;1.35;72.15
62548;BME280;48602;45.192;5.722;2023-01-27T11:03:53;99201.78;;;1.36;71.96
62548;BME280;48602;45.192;5.722;2023-01-27T11:06:23;99203.50;;;1.38;71.58
62548;BME280;48602;45.192;5.722;2023-01-27T11:09:01;99211.28;;;1.38;72.12
62548;BME280;48602;45.192;5.722;2023-01-27T11:11:29;99215.63;;;1.39;71.86
62548;BME280;48602;45.192;5.722;2023-01-27T11:14:17;99215.63;;;1.36;72.13
62548;BME280;48602;45.192;5.722;2023-01-27T11:16:54;99207.88;;;1.33;71.90
62548;BME280;48602;45.192;5.722;2023-01-27T11:22:18;99210.47;;;1.33;72.02
62548;BME280;48602;45.192;5.722;2023-01-27T11:24:48;99208.69;;;1.35;72.26
62548;BME280;48602;45.192;5.722;2023-01-27T11:29:53;99216.47;;;1.37;71.72
62548;BME280;48602;45.192;5.722;2023-01-27T11:32:35;99219.94;;;1.37;72.11
62548;BME280;48602;45.192;5.722;2023-01-27T11:35:09;99217.34;;;1.39;71.93
62548;BME280;48602;45.192;5.722;2023-01-27T11:37:36;99227.75;;;1.36;71.47
62548;BME280;48602;45.192;5.722;2023-01-27T11:40:05;99229.50;;;1.31;71.68
62548;BME280;48602;45.192;5.722;2023-01-27T11:42:37;99200.94;;;1.29;71.99
62548;BME280;48602;45.192;5.722;2023-01-27T11:45:03;99213.06;;;1.30;71.78
62548;BME280;48602;45.192;5.722;2023-01-27T11:47:33;99208.72;;;1.28;71.54
62548;BME280;48602;45.192;5.722;2023-01-27T11:50:01;99210.47;;;1.27;71.91
62548;BME280;48602;45.192;5.722;2023-01-27T11:52:29;99206.13;;;1.26;71.92
62548;BME280;48602;45.192;5.722;2023-01-27T11:55:04;99194.88;;;1.27;71.52
62548;BME280;48602;45.192;5.722;2023-01-27T11:57:31;99190.56;;;1.28;72.06
62548;BME280;48602;45.192;5.722;2023-01-27T12:00:09;99195.75;;;1.31;72.11
62548;BME280;48602;45.192;5.722;2023-01-27T12:02:41;99194.88;;;1.32;72.06
62548;BME280;48602;45.192;5.722;2023-01-27T12:05:13;99184.50;;;1.32;71.93
62548;BME280;48602;45.192;5.722;2023-01-27T12:07:53;99178.41;;;1.36;71.85
62548;BME280;48602;45.192;5.722;2023-01-27T12:13:06;99183.59;;;1.39;71.39
62548;BME280;48602;45.192;5.722;2023-01-27T12:15:34;99179.25;;;1.41;71.32
62548;BME280;48602;45.192;5.722;2023-01-27T12:18:14;99166.28;;;1.39;71.64
62548;BME280;48602;45.192;5.722;2023-01-27T12:20:45;99174.94;;;1.40;71.38
62548;BME280;48602;45.192;5.722;2023-01-27T12:23:23;99167.13;;;1.37;71.29
62548;BME280;48602;45.192;5.722;2023-01-27T12:26:09;99161.06;;;1.36;71.70
62548;BME280;48602;45.192;5.722;2023-01-27T12:28:42;99155.88;;;1.38;71.87
62548;BME280;48602;45.192;5.722;2023-01-27T12:31:23;99164.53;;;1.37;71.56
62548;BME280;48602;45.192;5.722;2023-01-27T12:34:32;99161.94;;;1.35;71.69
62548;BME280;48602;45.192;5.722;2023-01-27T12:36:59;99168.00;;;1.34;71.66
62548;BME280;48602;45.192;5.722;2023-01-27T12:39:35;99161.13;;;1.33;71.40
62548;BME280;48602;45.192;5.722;2023-01-27T12:42:04;99173.22;;;1.31;71.45
62548;BME280;48602;45.192;5.722;2023-01-27T12:44:40;99180.16;;;1.31;71.35
62548;BME280;48602;45.192;5.722;2023-01-27T12:49:47;99174.09;;;1.27;71.38
62548;BME280;48602;45.192;5.722;2023-01-27T12:52:20;99175.84;;;1.25;71.78
62548;BME280;48602;45.192;5.722;2023-01-27T12:54:46;99171.50;;;1.26;71.79
62548;BME280;48602;45.192;5.722;2023-01-27T12:57:15;99174.97;;;1.28;71.69
62548;BME280;48602;45.192;5.722;2023-01-27T12:59:50;99167.19;;;1.29;71.80
62548;BME280;48602;45.192;5.722;2023-01-27T13:02:21;99175.84;;;1.28;72.07
62548;BME280;48602;45.192;5.722;2023-01-27T13:04:58;99164.59;;;1.25;71.82
62548;BME280;48602;45.192;5.722;2023-01-27T13:07:38;99164.59;;;1.23;71.89
62548;BME280;48602;45.192;5.722;2023-01-27T13:10:18;99170.63;;;1.24;72.53
62548;BME280;48602;45.192;5.722;2023-01-27T13:12:57;99155.94;;;1.24;71.93
62548;BME280;48602;45.192;5.722;2023-01-27T13:15:24;99162.84;;;1.24;72.29
62548;BME280;48602;45.192;5.722;2023-01-27T13:17:57;99161.13;;;1.23;72.18
62548;BME280;48602;45.192;5.722;2023-01-27T13:20:29;99155.94;;;1.23;72.32
62548;BME280;48602;45.192;5.722;2023-01-27T13:23:03;99173.25;;;1.24;72.58
62548;BME280;48602;45.192;5.722;2023-01-27T13:28:38;99171.50;;;1.24;72.02
62548;BME280;48602;45.192;5.722;2023-01-27T13:31:09;99168.03;;;1.24;71.74
62548;BME280;48602;45.192;5.722;2023-01-27T13:33:46;99168.03;;;1.24;72.08
62548;BME280;48602;45.192;5.722;2023-01-27T13:41:45;99178.44;;;1.22;72.24
62548;BME280;48602;45.192;5.722;2023-01-27T13:44:40;99174.09;;;1.23;71.88
62548;BME280;48602;45.192;5.722;2023-01-27T13:47:29;99170.63;;;1.24;72.36
62548;BME280;48602;45.192;5.722;2023-01-27T13:50:06;99172.38;;;1.25;72.29
62548;BME280;48602;45.192;5.722;2023-01-27T13:52:34;99188.81;;;1.25;72.17
62548;BME280;48602;45.192;5.722;2023-01-27T13:54:59;99182.75;;;1.26;72.28
62548;BME280;48602;45.192;5.722;2023-01-27T13:57:52;99177.56;;;1.26;72.32
62548;BME280;48602;45.192;5.722;2023-01-27T14:00:24;99182.75;;;1.28;72.53
62548;BME280;48602;45.192;5.722;2023-01-27T14:03:21;99187.09;;;1.26;72.41
62548;BME280;48602;45.192;5.722;2023-01-27T14:20:13;99195.75;;;1.32;72.29
62548;BME280;48602;45.192;5.722;2023-01-27T14:23:08;99191.38;;;1.36;72.27
62548;BME280;48602;45.192;5.722;2023-01-27T14:28:26;99185.34;;;1.34;72.12
62548;BME280;48602;45.192;5.722;2023-01-27T14:31:01;99193.97;;;1.34;72.65
62548;BME280;48602;45.192;5.722;2023-01-27T14:33:54;99198.31;;;1.37;72.26
62548;BME280;48602;45.192;5.722;2023-01-27T14:36:39;99192.25;;;1.35;72.14
62548;BME280;48602;45.192;5.722;2023-01-27T14:39:21;99204.38;;;1.34;72.47
62548;BME280;48602;45.192;5.722;2023-01-27T14:42:16;99201.81;;;1.31;72.34
62548;BME280;48602;45.192;5.722;2023-01-27T14:47:41;99208.72;;;1.31;72.18
62548;BME280;48602;45.192;5.722;2023-01-27T14:50:26;99216.50;;;1.31;72.15
62548;BME280;48602;45.192;5.722;2023-01-27T15:05:39;99200.06;;;1.29;72.77
62548;BME280;48602;45.192;5.722;2023-01-27T15:11:04;99198.34;;;1.28;72.54
62548;BME280;48602;45.192;5.722;2023-01-27T15:13:52;99207.88;;;1.30;72.53
62548;BME280;48602;45.192;5.722;2023-01-27T15:25:35;99213.88;;;1.37;72.57